Time;durP1;ratioP1;P1;durP2;ratioP2;P2;SDS_P1;SDS_P2;PMS_P1;PMS_P2;Temp;Humidity;BMP_temperature;BMP_pressure;BME280_temperature;BME280_humidity;BME280_pressure;Samples;Min_cycle;Max_cycle;Signal;HPM_P1;HPM_P2
2021/05/16 00:01:21;;;;;;;12.63;11.17;;;7.70;93.60;;;;;;5054574;28;20286;-85
2021/05/16 00:03:50;;;;;;;11.83;10.67;;;7.70;93.70;;;;;;5054838;28;20199;-86
2021/05/16 00:06:16;;;;;;;14.60;13.07;;;7.70;93.70;;;;;;5054452;28;20172;-85
2021/05/16 00:08:42;;;;;;;13.63;11.87;;;7.70;93.70;;;;;;5054454;28;20575;-85
2021/05/16 00:11:09;;;;;;;13.47;12.10;;;7.80;93.70;;;;;;5054705;28;20709;-85
2021/05/16 00:13:35;;;;;;;15.10;13.40;;;7.90;93.70;;;;;;5054470;28;20172;-85
2021/05/16 00:16:01;;;;;;;12.03;10.93;;;7.80;93.60;;;;;;5054338;28;20181;-85
2021/05/16 00:18:27;;;;;;;10.90;9.47;;;7.80;93.60;;;;;;5054652;28;20175;-86
2021/05/16 00:20:54;;;;;;;12.47;10.20;;;7.70;93.50;;;;;;5054358;28;20192;-86
2021/05/16 00:23:20;;;;;;;12.10;9.50;;;7.60;93.40;;;;;;5054378;28;20218;-86
2021/05/16 00:25:46;;;;;;;18.33;10.13;;;7.70;93.40;;;;;;5054141;28;20164;-86
2021/05/16 00:28:12;;;;;;;24.57;9.70;;;7.60;93.40;;;;;;5054104;28;20164;-86
2021/05/16 00:30:38;;;;;;;13.17;9.97;;;7.60;93.30;;;;;;5054223;28;20184;-86
2021/05/16 00:33:04;;;;;;;25.23;11.43;;;7.70;93.40;;;;;;5054018;28;20190;-85
2021/05/16 00:35:32;;;;;;;16.10;11.40;;;7.70;93.50;;;;;;5053909;28;20176;-85
2021/05/16 00:38:01;;;;;;;12.40;11.20;;;7.70;93.50;;;;;;5054164;28;20546;-86
2021/05/16 00:40:27;;;;;;;11.40;10.30;;;7.70;93.60;;;;;;5053510;28;20192;-85
2021/05/16 00:42:53;;;;;;;12.07;10.83;;;7.70;93.60;;;;;;5035916;28;20203;-86
2021/05/16 00:45:25;;;;;;;11.93;10.73;;;7.70;93.60;;;;;;5035993;28;20168;-86
2021/05/16 00:47:56;;;;;;;11.97;10.83;;;7.70;93.60;;;;;;5054054;28;20160;-86
2021/05/16 00:50:25;;;;;;;12.47;11.27;;;7.70;93.60;;;;;;5035568;28;20161;-85
2021/05/16 00:52:51;;;;;;;12.20;11.00;;;7.80;93.60;;;;;;5053663;28;20171;-86
2021/05/16 00:55:17;;;;;;;13.30;12.00;;;7.80;93.60;;;;;;5053625;28;20545;-85
2021/05/16 00:57:43;;;;;;;13.97;12.57;;;7.80;93.70;;;;;;5035716;28;20176;-86
2021/05/16 01:00:12;;;;;;;14.03;12.57;;;7.90;93.80;;;;;;5035621;28;20716;-86
2021/05/16 01:02:38;;;;;;;13.70;12.30;;;7.90;93.90;;;;;;5053418;28;20199;-86
2021/05/16 01:05:06;;;;;;;13.33;11.93;;;8.00;93.90;;;;;;5053466;28;20530;-85
2021/05/16 01:07:34;;;;;;;14.80;12.87;;;7.90;93.90;;;;;;5053617;28;20530;-85
2021/05/16 01:10:00;;;;;;;16.60;13.30;;;8.10;94.10;;;;;;5035587;28;20810;-85
2021/05/16 01:12:32;;;;;;;15.93;13.50;;;8.30;94.20;;;;;;5035452;28;20567;-85
2021/05/16 01:15:02;;;;;;;16.17;13.83;;;8.30;94.20;;;;;;5053429;28;20590;-85
2021/05/16 01:17:28;;;;;;;16.53;13.17;;;8.30;94.20;;;;;;5035466;28;20160;-85
2021/05/16 01:19:53;;;;;;;16.80;12.93;;;8.40;94.30;;;;;;5053313;28;20172;-85
2021/05/16 01:22:19;;;;;;;13.63;12.23;;;8.60;94.40;;;;;;5035314;28;20606;-85
2021/05/16 01:24:48;;;;;;;15.87;12.40;;;8.60;94.40;;;;;;5053176;28;20164;-86
2021/05/16 01:27:15;;;;;;;13.80;11.70;;;8.60;94.30;;;;;;5035371;28;20553;-86
2021/05/16 01:29:41;;;;;;;12.50;11.30;;;8.60;94.30;;;;;;5035330;28;20218;-86
2021/05/16 01:32:11;;;;;;;12.27;10.77;;;8.70;94.30;;;;;;5053289;28;20198;-85
2021/05/16 01:34:40;;;;;;;13.00;11.70;;;8.70;94.30;;;;;;5053119;28;20529;-85
2021/05/16 01:37:07;;;;;;;12.77;11.57;;;8.70;94.30;;;;;;5035227;28;20183;-85
2021/05/16 01:39:33;;;;;;;12.00;10.73;;;8.70;94.30;;;;;;5035219;28;20743;-85
2021/05/16 01:41:58;;;;;;;12.37;11.13;;;8.80;94.30;;;;;;5052983;28;20199;-85
2021/05/16 01:44:25;;;;;;;13.70;11.27;;;8.80;94.30;;;;;;5052945;28;20187;-85
2021/05/16 01:46:50;;;;;;;13.30;10.87;;;8.80;94.30;;;;;;5053122;28;20210;-85
2021/05/16 01:49:16;;;;;;;11.53;10.37;;;8.80;94.30;;;;;;5052938;28;20599;-85
2021/05/16 01:51:43;;;;;;;11.50;10.43;;;8.80;94.20;;;;;;5055114;28;20233;-85
2021/05/16 01:54:09;;;;;;;11.33;10.23;;;8.80;94.20;;;;;;5056995;28;20212;-85
2021/05/16 01:56:35;;;;;;;11.00;9.90;;;8.80;94.20;;;;;;5056861;28;20204;-85
2021/05/16 01:59:01;;;;;;;11.40;10.30;;;8.80;94.20;;;;;;5056897;28;20200;-85
2021/05/16 02:01:29;;;;;;;13.63;10.87;;;8.80;94.20;;;;;;5056731;28;20210;-85
2021/05/16 02:03:56;;;;;;;11.10;10.00;;;8.80;94.10;;;;;;5057058;28;20663;-85
2021/05/16 02:06:22;;;;;;;12.70;11.50;;;8.80;94.10;;;;;;5056817;28;20213;-85
2021/05/16 02:08:48;;;;;;;11.13;10.03;;;8.80;94.10;;;;;;5056766;28;20172;-85
2021/05/16 02:11:13;;;;;;;12.10;10.10;;;8.80;94.10;;;;;;5056657;28;20188;-85
2021/05/16 02:13:40;;;;;;;12.00;10.03;;;8.80;94.10;;;;;;5038801;28;20591;-85
2021/05/16 02:16:08;;;;;;;10.80;9.80;;;8.80;94.10;;;;;;5038700;28;20176;-85
2021/05/16 02:18:33;;;;;;;14.03;11.20;;;8.70;94.00;;;;;;5056530;28;20223;-85
2021/05/16 02:21:00;;;;;;;10.83;9.80;;;8.70;94.10;;;;;;5038631;28;20593;-85
2021/05/16 02:23:26;;;;;;;9.73;8.20;;;8.80;94.10;;;;;;5056362;28;20275;-85
2021/05/16 02:25:52;;;;;;;11.67;9.27;;;8.80;94.10;;;;;;5038581;28;20608;-85
2021/05/16 02:28:18;;;;;;;10.77;8.60;;;8.70;94.00;;;;;;5056383;28;20181;-85
2021/05/16 02:30:45;;;;;;;9.23;8.33;;;8.70;94.00;;;;;;5056250;28;20192;-85
2021/05/16 02:33:11;;;;;;;9.80;8.90;;;8.70;94.00;;;;;;5038379;28;20183;-85
2021/05/16 02:35:38;;;;;;;9.50;8.60;;;8.70;94.00;;;;;;5038293;28;20172;-85
2021/05/16 02:38:04;;;;;;;10.63;9.50;;;8.70;93.90;;;;;;5056225;28;20173;-85
2021/05/16 02:40:31;;;;;;;13.47;9.60;;;8.70;94.00;;;;;;5056073;28;20195;-85
2021/05/16 02:42:57;;;;;;;13.57;9.67;;;8.60;93.90;;;;;;5056034;28;20188;-85
2021/05/16 02:45:23;;;;;;;11.53;10.07;;;8.60;93.90;;;;;;5038233;28;20709;-85
2021/05/16 02:47:49;;;;;;;14.07;10.77;;;8.60;93.90;;;;;;5056078;28;20169;-85
2021/05/16 02:50:15;;;;;;;12.23;9.63;;;8.50;93.80;;;;;;5055935;28;20255;-85
2021/05/16 02:52:41;;;;;;;9.03;8.23;;;8.50;93.80;;;;;;5055938;28;20559;-85
2021/05/16 02:55:08;;;;;;;10.60;9.50;;;8.50;93.80;;;;;;5037977;28;20180;-85
2021/05/16 02:57:33;;;;;;;10.40;9.40;;;8.50;93.70;;;;;;5055802;28;20208;-86
2021/05/16 02:59:59;;;;;;;10.77;9.23;;;8.50;93.70;;;;;;5055838;28;20200;-85
2021/05/16 03:02:25;;;;;;;9.50;8.60;;;8.50;93.70;;;;;;5055201;28;20188;-85
2021/05/16 03:04:51;;;;;;;9.43;8.60;;;8.50;93.60;;;;;;5055911;28;20179;-85
2021/05/16 03:07:16;;;;;;;9.50;8.50;;;8.40;93.50;;;;;;5055725;28;20168;-85
2021/05/16 03:09:42;;;;;;;11.23;8.90;;;8.40;93.50;;;;;;5037912;28;20171;-85
2021/05/16 03:12:08;;;;;;;9.30;8.40;;;8.40;93.50;;;;;;5037776;28;20219;-85
2021/05/16 03:14:35;;;;;;;10.60;9.03;;;8.40;93.50;;;;;;5055483;28;20176;-85
2021/05/16 03:17:01;;;;;;;10.97;9.90;;;8.40;93.50;;;;;;5055499;28;20195;-85
2021/05/16 03:19:27;;;;;;;11.63;10.43;;;8.40;93.50;;;;;;5055643;28;20569;-85
2021/05/16 03:21:53;;;;;;;11.50;10.37;;;8.40;93.50;;;;;;5055472;28;20231;-85
2021/05/16 03:24:19;;;;;;;12.67;11.37;;;8.30;93.50;;;;;;5055227;28;20224;-85
2021/05/16 03:26:45;;;;;;;12.30;11.10;;;8.40;93.50;;;;;;5055287;28;20175;-85
2021/05/16 03:29:11;;;;;;;12.33;9.93;;;8.30;93.50;;;;;;5055278;28;20172;-85
2021/05/16 03:31:38;;;;;;;13.10;10.77;;;8.30;93.40;;;;;;5055341;28;20189;-85
2021/05/16 03:34:05;;;;;;;11.77;10.03;;;8.30;93.40;;;;;;5055120;28;20242;-85
2021/05/16 03:36:31;;;;;;;10.77;9.67;;;8.30;93.40;;;;;;5055131;28;20175;-85
2021/05/16 03:38:56;;;;;;;11.97;10.50;;;8.30;93.30;;;;;;5055046;28;20243;-85
2021/05/16 03:41:22;;;;;;;13.20;9.47;;;8.30;93.30;;;;;;5054951;28;20200;-85
2021/05/16 03:43:49;;;;;;;12.40;8.40;;;8.30;93.30;;;;;;5036949;28;20283;-86
2021/05/16 03:46:16;;;;;;;10.60;8.80;;;8.20;93.10;;;;;;5037019;28;20544;-85
2021/05/16 03:48:41;;;;;;;9.03;8.23;;;8.20;93.00;;;;;;5054897;28;20213;-85
2021/05/16 03:51:07;;;;;;;8.30;7.13;;;8.10;93.00;;;;;;5036782;28;20211;-85
2021/05/16 03:53:33;;;;;;;7.07;6.47;;;8.00;92.90;;;;;;5055066;28;20196;-85
2021/05/16 03:55:59;;;;;;;7.90;7.20;;;7.90;92.80;;;;;;5055000;28;20207;-85
2021/05/16 03:58:24;;;;;;;8.23;7.43;;;7.80;92.70;;;;;;5054790;28;20176;-85
2021/05/16 04:00:50;;;;;;;8.57;7.00;;;7.80;92.60;;;;;;5054572;28;20639;-85
2021/05/16 04:03:16;;;;;;;8.53;7.63;;;7.80;92.60;;;;;;5054547;28;20278;-85
2021/05/16 04:05:41;;;;;;;7.67;6.87;;;7.70;92.50;;;;;;5036725;28;20194;-85
2021/05/16 04:08:07;;;;;;;7.30;6.60;;;7.50;92.60;;;;;;5054539;28;20172;-85
2021/05/16 04:10:33;;;;;;;8.87;7.60;;;7.40;92.70;;;;;;5036567;28;20203;-85
2021/05/16 04:12:59;;;;;;;7.97;7.20;;;7.30;92.70;;;;;;5036077;28;20203;-85
2021/05/16 04:15:25;;;;;;;8.23;7.43;;;7.40;92.90;;;;;;5036028;28;20219;-85
2021/05/16 04:17:51;;;;;;;7.90;7.10;;;7.40;92.90;;;;;;5036989;28;20276;-85
2021/05/16 04:20:16;;;;;;;9.50;7.77;;;7.40;93.00;;;;;;5054420;28;20238;-85
2021/05/16 04:22:42;;;;;;;8.10;7.33;;;7.50;93.20;;;;;;5054172;28;20682;-85
2021/05/16 04:25:08;;;;;;;9.20;7.73;;;7.50;93.30;;;;;;5054436;28;20168;-85
2021/05/16 04:27:34;;;;;;;9.03;8.20;;;7.40;93.30;;;;;;5054110;28;20229;-85
2021/05/16 04:30:00;;;;;;;13.53;8.97;;;7.50;93.40;;;;;;5054170;28;20251;-85
2021/05/16 04:32:25;;;;;;;11.87;9.33;;;7.50;93.50;;;;;;5054278;28;20188;-85
2021/05/16 04:34:51;;;;;;;12.57;9.73;;;7.60;93.60;;;;;;5054187;28;20172;-85
2021/05/16 04:37:16;;;;;;;11.10;9.90;;;7.80;93.80;;;;;;5054228;28;20172;-85
2021/05/16 04:39:42;;;;;;;12.67;11.27;;;7.90;94.00;;;;;;5054321;28;20200;-85
2021/05/16 04:42:08;;;;;;;14.40;10.83;;;8.10;94.10;;;;;;5053841;28;20262;-85
2021/05/16 04:44:34;;;;;;;12.93;10.67;;;8.20;94.20;;;;;;5053758;28;20664;-85
2021/05/16 04:46:59;;;;;;;14.47;11.67;;;8.40;94.30;;;;;;5035945;28;20176;-85
2021/05/16 04:49:25;;;;;;;12.13;10.83;;;8.50;94.40;;;;;;5053738;28;20172;-85
2021/05/16 04:51:50;;;;;;;12.00;10.80;;;8.60;94.40;;;;;;5053542;28;20290;-85
2021/05/16 04:54:16;;;;;;;13.17;10.67;;;8.70;94.40;;;;;;5035934;28;20591;-85
2021/05/16 04:56:42;;;;;;;12.47;10.23;;;8.80;94.40;;;;;;5035814;28;20175;-85
2021/05/16 04:59:09;;;;;;;15.00;10.17;;;8.80;94.40;;;;;;5053497;28;20172;-85
2021/05/16 05:01:36;;;;;;;12.23;9.70;;;8.80;94.40;;;;;;5035583;28;20203;-85
2021/05/16 05:04:01;;;;;;;16.03;10.67;;;8.90;94.40;;;;;;5053460;28;20210;-85
2021/05/16 05:06:29;;;;;;;11.43;10.23;;;8.90;94.50;;;;;;5053486;28;20632;-85
2021/05/16 05:08:54;;;;;;;13.33;10.90;;;9.00;94.50;;;;;;5035561;28;20175;-85
2021/05/16 05:11:20;;;;;;;14.07;11.20;;;9.10;94.50;;;;;;5053603;28;20187;-85
2021/05/16 05:13:45;;;;;;;11.97;10.50;;;9.10;94.50;;;;;;5053325;28;20199;-85
2021/05/16 05:16:11;;;;;;;11.43;10.20;;;9.20;94.60;;;;;;5035493;28;20274;-85
2021/05/16 05:18:37;;;;;;;12.20;10.07;;;9.20;94.60;;;;;;5053573;28;20171;-85
2021/05/16 05:21:02;;;;;;;11.93;10.73;;;9.30;94.60;;;;;;5053223;28;20196;-85
2021/05/16 05:23:28;;;;;;;13.63;10.23;;;9.30;94.60;;;;;;5053145;28;20200;-85
2021/05/16 05:25:56;;;;;;;12.30;10.43;;;9.30;94.60;;;;;;5053099;28;20636;-85
2021/05/16 05:28:23;;;;;;;11.70;10.13;;;9.40;94.60;;;;;;5053231;28;20164;-85
2021/05/16 05:30:48;;;;;;;11.30;10.20;;;9.50;94.70;;;;;;5053123;28;20252;-85
2021/05/16 05:33:14;;;;;;;15.57;10.90;;;9.60;94.70;;;;;;5053070;28;20646;-85
2021/05/16 05:35:40;;;;;;;11.17;10.00;;;9.60;94.70;;;;;;5053033;28;20178;-85
2021/05/16 05:38:05;;;;;;;14.33;11.10;;;9.60;94.60;;;;;;5053034;28;20253;-85
2021/05/16 05:40:31;;;;;;;11.17;9.80;;;9.70;94.60;;;;;;5053205;28;20193;-85
2021/05/16 05:42:57;;;;;;;13.88;11.80;;;9.80;94.60;;;;;;5034526;28;20931;-85
2021/05/16 05:45:23;;;;;;;12.50;11.20;;;9.80;94.50;;;;;;5035422;28;20175;-85
2021/05/16 05:47:48;;;;;;;15.20;10.17;;;9.80;94.40;;;;;;5052969;28;20180;-85
2021/05/16 05:50:14;;;;;;;12.90;10.07;;;9.80;94.40;;;;;;5052927;28;20199;-85
2021/05/16 05:52:40;;;;;;;14.33;9.43;;;9.80;94.30;;;;;;5053145;28;20200;-85
2021/05/16 05:55:07;;;;;;;11.27;10.17;;;9.80;94.30;;;;;;5035080;28;20234;-85
2021/05/16 05:57:32;;;;;;;13.20;9.67;;;9.90;94.20;;;;;;5053214;28;20183;-85
2021/05/16 05:59:59;;;;;;;14.63;10.10;;;9.90;94.20;;;;;;5035188;28;20176;-85
2021/05/16 06:02:25;;;;;;;12.17;10.83;;;9.90;94.10;;;;;;5034840;28;20682;-85
2021/05/16 06:04:50;;;;;;;13.77;10.53;;;10.00;94.10;;;;;;5052965;28;20256;-85
2021/05/16 06:07:16;;;;;;;12.13;10.97;;;10.00;94.10;;;;;;5035007;28;20183;-85
2021/05/16 06:09:44;;;;;;;11.40;10.17;;;10.10;94.10;;;;;;5034898;28;20180;-85
2021/05/16 06:12:10;;;;;;;17.10;10.63;;;10.20;94.10;;;;;;5053037;28;20774;-85
2021/05/16 06:14:36;;;;;;;14.20;11.30;;;10.20;94.10;;;;;;5052866;28;20245;-85
2021/05/16 06:17:02;;;;;;;12.37;10.77;;;10.20;94.10;;;;;;5052713;28;20179;-85
2021/05/16 06:19:28;;;;;;;13.30;11.50;;;10.30;94.10;;;;;;5052757;28;20176;-85
2021/05/16 06:21:53;;;;;;;12.80;11.53;;;10.30;94.00;;;;;;5034736;28;20345;-85
2021/05/16 06:24:19;;;;;;;13.73;12.10;;;10.30;93.90;;;;;;5052593;28;20621;-85
2021/05/16 06:26:46;;;;;;;12.90;11.30;;;10.40;93.90;;;;;;5052599;28;20649;-85
2021/05/16 06:29:14;;;;;;;12.87;11.57;;;10.40;93.70;;;;;;5034734;28;20709;-85
2021/05/16 06:31:41;;;;;;;12.63;11.37;;;10.40;93.60;;;;;;5052501;28;20199;-85
2021/05/16 06:34:07;;;;;;;13.90;10.60;;;10.50;93.60;;;;;;5052485;28;20267;-85
2021/05/16 06:36:33;;;;;;;12.27;10.67;;;10.60;93.60;;;;;;5052838;28;20187;-85
2021/05/16 06:38:59;;;;;;;11.40;10.20;;;10.60;93.60;;;;;;5056207;28;20614;-85
2021/05/16 06:41:26;;;;;;;12.37;11.07;;;10.60;93.50;;;;;;5056186;28;20192;-85
2021/05/16 06:43:52;;;;;;;13.70;11.20;;;10.60;93.50;;;;;;5056062;28;20227;-85
2021/05/16 06:46:17;;;;;;;13.87;12.47;;;10.60;93.40;;;;;;5038211;28;20210;-85
2021/05/16 06:48:43;;;;;;;14.50;12.67;;;10.70;93.30;;;;;;5056033;28;20595;-85
2021/05/16 06:51:10;;;;;;;14.40;12.97;;;10.70;93.30;;;;;;5055880;28;20216;-85
2021/05/16 06:53:36;;;;;;;16.67;14.97;;;10.70;93.30;;;;;;5055966;28;20203;-85
2021/05/16 06:56:02;;;;;;;15.03;13.53;;;10.80;93.10;;;;;;5056215;28;20183;-85
2021/05/16 06:58:28;;;;;;;14.23;12.93;;;10.80;93.10;;;;;;5055866;28;20706;-85
2021/05/16 07:00:54;;;;;;;16.97;15.17;;;10.80;93.00;;;;;;5055722;28;20212;-85
2021/05/16 07:03:19;;;;;;;18.97;16.60;;;10.90;93.00;;;;;;5056053;28;20239;-85
2021/05/16 07:05:45;;;;;;;22.93;18.73;;;11.00;93.00;;;;;;5055723;28;20176;-85
2021/05/16 07:08:11;;;;;;;31.67;24.97;;;11.00;93.00;;;;;;5037787;28;20176;-85
2021/05/16 07:10:36;;;;;;;21.80;19.60;;;11.00;92.70;;;;;;5037772;28;20676;-85
2021/05/16 07:13:03;;;;;;;27.07;21.87;;;11.00;92.50;;;;;;5055685;28;20263;-85
2021/05/16 07:15:28;;;;;;;31.17;25.90;;;11.00;92.50;;;;;;5055771;28;20176;-85
2021/05/16 07:17:54;;;;;;;34.57;28.90;;;11.00;92.50;;;;;;5037585;28;20233;-85
2021/05/16 07:20:20;;;;;;;34.07;27.07;;;11.00;92.40;;;;;;5055412;28;20168;-85
2021/05/16 07:22:46;;;;;;;30.37;25.93;;;11.10;92.00;;;;;;5037493;28;20203;-85
2021/05/16 07:25:12;;;;;;;32.00;28.50;;;11.20;92.00;;;;;;5055429;28;20180;-85
2021/05/16 07:27:38;;;;;;;29.73;25.30;;;11.30;92.00;;;;;;5037488;28;20597;-85
2021/05/16 07:30:05;;;;;;;22.97;20.67;;;11.40;91.70;;;;;;5055225;28;20164;-85
2021/05/16 07:32:30;;;;;;;20.57;18.57;;;11.40;90.60;;;;;;5037445;28;20203;-85
2021/05/16 07:34:56;;;;;;;19.03;17.03;;;11.50;90.60;;;;;;5055237;28;20176;-85
2021/05/16 07:37:22;;;;;;;18.93;17.13;;;11.60;90.00;;;;;;5037397;28;20172;-85
2021/05/16 07:39:48;;;;;;;17.63;15.90;;;11.60;90.00;;;;;;5055432;28;20684;-85
2021/05/16 07:42:13;;;;;;;18.53;16.83;;;11.60;89.60;;;;;;5055041;28;20192;-85
2021/05/16 07:44:39;;;;;;;21.33;19.17;;;11.60;89.00;;;;;;5037290;28;20261;-85
2021/05/16 07:47:05;;;;;;;20.73;18.77;;;11.60;89.80;;;;;;5054975;28;20172;-85
2021/05/16 07:49:31;;;;;;;15.93;14.53;;;11.70;90.20;;;;;;5035775;28;20596;-85
2021/05/16 07:51:57;;;;;;;15.90;14.50;;;11.70;89.60;;;;;;5036862;28;20298;-85
2021/05/16 07:54:22;;;;;;;16.70;15.17;;;11.80;89.40;;;;;;5054812;28;20678;-85
2021/05/16 07:56:48;;;;;;;16.87;15.27;;;11.90;89.50;;;;;;5036961;28;20184;-85
2021/05/16 07:59:14;;;;;;;15.80;14.30;;;12.00;88.80;;;;;;5054923;28;20167;-85
2021/05/16 08:01:40;;;;;;;12.70;11.60;;;12.30;89.50;;;;;;5054979;28;20192;-85
2021/05/16 08:04:05;;;;;;;14.03;12.73;;;12.40;89.30;;;;;;5054584;28;20223;-85
2021/05/16 08:06:31;;;;;;;13.70;12.50;;;12.40;88.60;;;;;;5036729;28;20255;-85
2021/05/16 08:08:57;;;;;;;13.23;12.03;;;12.50;87.50;;;;;;5054564;28;20172;-86
2021/05/16 08:11:22;;;;;;;16.47;14.87;;;12.60;87.50;;;;;;5036595;28;20203;-86
2021/05/16 08:13:48;;;;;;;17.47;15.97;;;12.70;87.50;;;;;;5036698;28;20524;-87
2021/05/16 08:16:15;;;;;;;19.70;17.87;;;12.60;86.30;;;;;;5054356;28;20218;-86
2021/05/16 08:18:40;;;;;;;18.97;17.27;;;12.60;86.50;;;;;;5054348;28;20176;-86
2021/05/16 08:21:06;;;;;;;17.77;16.17;;;12.60;86.10;;;;;;5054261;28;20267;-86
2021/05/16 08:23:32;;;;;;;16.77;15.03;;;12.60;85.70;;;;;;5036290;28;20553;-86
2021/05/16 08:25:58;;;;;;;16.17;13.33;;;12.60;85.40;;;;;;5054244;28;20176;-85
2021/05/16 08:28:25;;;;;;;14.40;12.60;;;12.40;84.90;;;;;;5036418;28;20662;-85
2021/05/16 08:30:51;;;;;;;12.67;11.50;;;12.50;85.80;;;;;;5054048;28;20188;-85
2021/05/16 08:33:16;;;;;;;12.83;11.60;;;12.40;84.90;;;;;;5036218;28;20176;-86
2021/05/16 08:35:42;;;;;;;12.63;11.33;;;12.40;85.50;;;;;;5054028;28;20298;-85
2021/05/16 08:38:08;;;;;;;12.37;11.27;;;12.40;85.10;;;;;;5036280;28;20536;-87
2021/05/16 08:40:34;;;;;;;13.27;12.07;;;12.30;85.00;;;;;;5036077;28;20234;-87
2021/05/16 08:43:01;;;;;;;13.53;11.93;;;12.40;85.90;;;;;;5053865;28;20199;-87
2021/05/16 08:45:27;;;;;;;5.90;4.97;;;12.30;85.30;;;;;;5053774;28;20173;-86
2021/05/16 08:47:53;;;;;;;3.10;2.80;;;12.20;82.10;;;;;;5052883;28;20400;-86
2021/05/16 08:50:19;;;;;;;2.30;2.10;;;11.50;82.80;;;;;;5054060;28;20177;-85
2021/05/16 08:52:45;;;;;;;6.53;3.20;;;11.10;83.90;;;;;;5053785;28;20589;-85
2021/05/16 08:55:13;;;;;;;5.03;3.30;;;11.00;85.90;;;;;;5053716;28;20164;-86
2021/05/16 08:57:42;;;;;;;3.73;3.43;;;11.20;86.80;;;;;;5035737;28;20178;-86
2021/05/16 09:00:11;;;;;;;4.60;3.60;;;11.20;87.00;;;;;;5053308;28;20195;-86
2021/05/16 09:02:58;;;;;;;6.60;4.70;;;11.20;87.10;;;;;;5053315;28;20617;-86
2021/05/16 09:05:29;;;;;;;10.73;7.67;;;11.30;87.90;;;;;;5053629;28;20176;-86
2021/05/16 09:08:13;;;;;;;12.37;10.97;;;11.30;88.30;;;;;;5053401;28;20540;-85
2021/05/16 09:10:40;;;;;;;15.30;11.87;;;11.30;88.90;;;;;;5035336;28;20203;-86
2021/05/16 09:13:18;;;;;;;15.93;13.50;;;11.50;89.70;;;;;;5148162;22;20322;-84
2021/05/16 09:15:59;;;;;;;20.27;15.33;;;11.60;89.60;;;;;;5058496;28;20160;-86
2021/05/16 09:18:56;;;;;;;20.80;17.23;;;11.90;89.90;;;;;;5055489;28;20152;-85
2021/05/16 09:21:30;;;;;;;21.70;18.60;;;12.20;90.20;;;;;;5036002;28;20202;-84
2021/05/16 09:24:02;;;;;;;18.87;16.93;;;12.40;89.70;;;;;;5055163;28;20753;-83
2021/05/16 09:26:30;;;;;;;20.07;17.97;;;12.70;88.10;;;;;;5054779;28;20171;-84
2021/05/16 09:28:56;;;;;;;28.03;19.13;;;13.00;87.90;;;;;;5037648;28;20270;-84
2021/05/16 09:31:35;;;;;;;17.07;15.47;;;13.50;88.50;;;;;;5055860;28;20203;-84
2021/05/16 09:34:06;;;;;;;19.97;15.83;;;13.60;87.60;;;;;;5054516;28;20176;-84
2021/05/16 09:36:36;;;;;;;17.97;15.10;;;13.30;85.50;;;;;;5036704;28;20180;-83
2021/05/16 09:39:31;;;;;;;16.77;14.33;;;13.20;85.60;;;;;;5037605;28;20266;-84
2021/05/16 09:42:02;;;;;;;17.70;15.80;;;13.30;85.70;;;;;;5021498;28;20227;-84
2021/05/16 09:44:31;;;;;;;16.13;14.43;;;13.40;86.60;;;;;;5035680;28;20206;-84
2021/05/16 09:47:19;;;;;;;15.73;13.73;;;13.40;85.30;;;;;;5054215;28;20199;-84
2021/05/16 09:49:50;;;;;;;14.03;12.57;;;13.30;83.40;;;;;;5035349;28;20597;-85
2021/05/16 09:52:18;;;;;;;14.33;12.87;;;13.30;84.60;;;;;;5035592;28;20198;-85
2021/05/16 09:54:56;;;;;;;15.07;13.53;;;13.60;83.70;;;;;;5053595;28;20172;-85
2021/05/16 09:57:25;;;;;;;15.83;12.43;;;13.80;82.50;;;;;;5053435;28;20172;-85
2021/05/16 09:59:53;;;;;;;13.53;10.67;;;13.60;81.40;;;;;;5054771;28;20199;-84
2021/05/16 10:02:24;;;;;;;14.00;10.80;;;13.50;81.40;;;;;;5038925;28;20203;-84
2021/05/16 10:04:51;;;;;;;13.23;10.63;;;13.30;81.70;;;;;;5055642;28;20668;-84
2021/05/16 10:07:22;;;;;;;13.00;8.43;;;13.20;82.90;;;;;;5057456;28;20226;-83
2021/05/16 10:09:48;;;;;;;8.63;7.10;;;12.80;80.90;;;;;;5056178;28;20188;-84
2021/05/16 10:12:15;;;;;;;12.30;8.80;;;12.30;85.70;;;;;;5056474;28;20199;-85
2021/05/16 10:14:45;;;;;;;9.77;5.07;;;12.10;87.80;;;;;;5058876;28;20191;-86
2021/05/16 10:17:11;;;;;;;7.40;4.87;;;11.80;88.10;;;;;;5059211;28;20758;-85
2021/05/16 10:19:42;;;;;;;4.00;2.87;;;11.60;87.50;;;;;;5039898;28;20651;-85
2021/05/16 10:22:07;;;;;;;2.40;2.20;;;11.50;86.70;;;;;;5058265;28;20227;-85
2021/05/16 10:24:53;;;;;;;6.43;2.87;;;11.40;86.20;;;;;;5040484;28;20219;-85
2021/05/16 10:27:33;;;;;;;3.83;2.90;;;11.60;86.90;;;;;;5059114;28;20186;-86
2021/05/16 10:30:08;;;;;;;4.50;2.40;;;11.70;86.50;;;;;;5041495;28;20255;-85
2021/05/16 10:32:36;;;;;;;2.07;1.87;;;11.90;87.10;;;;;;5059836;28;20598;-85
2021/05/16 10:35:07;;;;;;;3.23;2.07;;;12.30;85.60;;;;;;5041400;28;20176;-85
2021/05/16 10:37:33;;;;;;;5.43;4.73;;;12.50;84.30;;;;;;5060316;28;20182;-84
2021/05/16 10:39:59;;;;;;;5.40;4.13;;;12.60;82.10;;;;;;5042334;28;20183;-84
2021/05/16 10:42:35;;;;;;;8.37;5.40;;;12.60;84.00;;;;;;5042578;28;20196;-84
2021/05/16 10:45:02;;;;;;;17.03;10.53;;;12.60;83.40;;;;;;5044050;28;20176;-84
2021/05/16 10:47:50;;;;;;;15.50;10.00;;;12.70;84.60;;;;;;5061005;28;20168;-84
2021/05/16 10:50:19;;;;;;;16.37;9.73;;;12.50;84.90;;;;;;5042577;28;20169;-84
2021/05/16 10:53:11;;;;;;;19.67;10.97;;;12.50;84.80;;;;;;5041553;28;20188;-84
2021/05/16 10:55:42;;;;;;;19.30;11.63;;;12.50;85.30;;;;;;5041968;28;20168;-84
2021/05/16 10:58:27;;;;;;;14.73;11.43;;;12.40;86.30;;;;;;5041618;28;20176;-84
2021/05/16 11:01:03;;;;;;;13.10;10.40;;;12.20;85.60;;;;;;5041230;28;20176;-84
2021/05/16 11:03:48;;;;;;;16.93;9.80;;;12.30;86.70;;;;;;5059659;28;20231;-84
2021/05/16 11:06:16;;;;;;;19.83;11.17;;;12.20;85.90;;;;;;5059098;28;20549;-84
2021/05/16 11:08:41;;;;;;;19.03;12.17;;;12.20;87.00;;;;;;5041537;28;20198;-84
2021/05/16 11:11:34;;;;;;;18.93;11.43;;;12.30;87.20;;;;;;5059168;28;20176;-84
2021/05/16 11:14:20;;;;;;;16.30;10.50;;;12.30;86.80;;;;;;5048744;28;20256;-83
2021/05/16 11:16:49;;;;;;;14.82;7.30;;;12.40;86.70;;;;;;5038676;28;20492;-83
2021/05/16 11:19:15;;;;;;;8.20;5.30;;;12.40;83.90;;;;;;5040190;28;20171;-84
2021/05/16 11:21:41;;;;;;;7.07;5.27;;;12.50;83.50;;;;;;5039255;28;20183;-84
2021/05/16 11:24:08;;;;;;;6.27;5.27;;;12.50;82.00;;;;;;5056688;28;20256;-84
2021/05/16 11:26:34;;;;;;;9.47;4.43;;;12.70;82.30;;;;;;5039483;28;20198;-84
2021/05/16 11:29:00;;;;;;;8.10;6.30;;;13.00;81.30;;;;;;5066034;28;20164;-83
2021/05/16 11:31:29;;;;;;;9.57;6.10;;;13.20;83.20;;;;;;5050505;28;20176;-83
2021/05/16 11:33:56;;;;;;;7.50;5.30;;;13.20;81.40;;;;;;5067776;28;20255;-83
2021/05/16 11:36:30;;;;;;;12.57;5.50;;;13.30;80.80;;;;;;5051668;28;20176;-83
2021/05/16 11:38:57;;;;;;;9.20;4.73;;;13.20;78.80;;;;;;5041197;28;20196;-85
2021/05/16 11:41:36;;;;;;;7.13;4.57;;;13.10;81.40;;;;;;5041009;28;20176;-84
2021/05/16 11:44:05;;;;;;;7.37;4.10;;;13.00;80.60;;;;;;5058758;28;20354;-84
2021/05/16 11:46:40;;;;;;;7.13;4.50;;;12.90;81.70;;;;;;5059587;28;20172;-83
2021/05/16 11:49:08;;;;;;;11.80;4.90;;;13.00;82.50;;;;;;5040392;28;20171;-84
2021/05/16 11:51:34;;;;;;;8.90;5.13;;;13.00;81.00;;;;;;5039958;28;20597;-83
2021/05/16 11:54:00;;;;;;;9.27;5.73;;;13.00;83.60;;;;;;5058335;28;20176;-84
2021/05/16 11:56:29;;;;;;;8.67;5.27;;;13.00;83.00;;;;;;5058281;28;20180;-84
2021/05/16 11:58:59;;;;;;;10.83;5.83;;;13.00;82.80;;;;;;5057206;28;20177;-84
2021/05/16 12:01:32;;;;;;;8.47;5.43;;;13.00;82.70;;;;;;5059337;28;20168;-83
2021/05/16 12:04:02;;;;;;;8.57;6.23;;;13.00;84.00;;;;;;5059107;28;20176;-84
2021/05/16 12:06:29;;;;;;;10.60;6.80;;;13.10;84.10;;;;;;5041701;28;20240;-84
2021/05/16 12:09:09;;;;;;;12.00;6.80;;;13.20;83.70;;;;;;5061439;28;20168;-85
2021/05/16 12:11:35;;;;;;;11.57;7.83;;;13.20;83.30;;;;;;5042615;28;20175;-84
2021/05/16 12:14:12;;;;;;;7.17;5.30;;;13.50;84.30;;;;;;5043633;28;20683;-84
2021/05/16 12:16:39;;;;;;;6.47;4.50;;;13.50;80.00;;;;;;5059111;28;20171;-84
2021/05/16 12:19:06;;;;;;;13.43;5.67;;;13.70;79.30;;;;;;5058529;28;20247;-83
2021/05/16 12:21:34;;;;;;;9.53;6.20;;;14.10;80.80;;;;;;5057318;28;20176;-83
2021/05/16 12:24:03;;;;;;;8.73;5.47;;;14.60;79.70;;;;;;5061009;28;20192;-84
2021/05/16 12:26:33;;;;;;;10.23;6.03;;;14.50;79.30;;;;;;5060793;28;20165;-84
2021/05/16 12:28:59;;;;;;;12.70;6.30;;;14.20;79.20;;;;;;5060318;28;20192;-84
2021/05/16 12:31:26;;;;;;;9.30;5.40;;;14.10;79.90;;;;;;5040132;28;20671;-84
2021/05/16 12:33:53;;;;;;;6.67;3.90;;;13.80;79.30;;;;;;5058369;28;20196;-84
2021/05/16 12:36:20;;;;;;;6.80;4.57;;;13.40;80.30;;;;;;5057548;28;20195;-84
2021/05/16 12:38:48;;;;;;;12.60;4.20;;;13.20;81.30;;;;;;5039282;28;20532;-84
2021/05/16 12:41:19;;;;;;;8.90;3.97;;;13.10;80.20;;;;;;5038902;28;20176;-83